createdAt,value
2019-01-23T00:00:23.927Z,84.90
2019-01-23T00:01:23.315Z,76.05
2019-01-23T00:02:01.301Z,85.40
2019-01-23T00:02:39.002Z,77.82
2019-01-23T00:03:16.769Z,81.02
2019-01-23T00:03:54.554Z,83.03
2019-01-23T00:04:32.230Z,79.17
2019-01-23T00:05:09.327Z,84.65
2019-01-23T00:05:47.165Z,82.88
2019-01-23T00:06:24.677Z,94.17
2019-01-23T00:07:02.153Z,87.05
2019-01-23T00:07:39.527Z,86.78
2019-01-23T00:08:17.205Z,91.32
2019-01-23T00:08:55.001Z,79.10
2019-01-23T00:09:32.376Z,98.87
2019-01-23T00:10:09.963Z,88.42
2019-01-23T00:10:47.477Z,90.32
2019-01-23T00:11:25.437Z,86.05
2019-01-23T00:12:03.012Z,92.55
2019-01-23T00:12:40.896Z,90.70
2019-01-23T00:13:18.303Z,96.02
2019-01-23T00:13:55.649Z,99.65
2019-01-23T00:14:33.078Z,94.13
2019-01-23T00:15:10.715Z,100.00
2019-01-23T00:15:47.906Z,91.50
2019-01-23T00:16:25.995Z,95.00
2019-01-23T00:17:02.967Z,96.67
2019-01-23T00:17:40.587Z,89.13
2019-01-23T00:18:18.224Z,104.30
2019-01-23T00:18:56.503Z,90.67
2019-01-23T00:19:41.610Z,89.37
2019-01-23T00:20:19.724Z,99.95
2019-01-23T00:20:57.339Z,97.80
2019-01-23T00:21:35.055Z,93.97
2019-01-23T00:22:12.601Z,106.60
2019-01-23T00:22:52.347Z,105.52
2019-01-23T00:23:29.749Z,107.03
2019-01-23T00:24:07.260Z,105.70
2019-01-23T00:24:44.927Z,100.92
2019-01-23T00:25:22.951Z,101.70
2019-01-23T00:26:00.985Z,111.65
2019-01-23T00:26:38.403Z,115.60
2019-01-23T00:27:15.771Z,107.92
2019-01-23T00:27:53.431Z,109.07
2019-01-23T00:28:31.127Z,105.55
2019-01-23T00:29:09.114Z,116.22
2019-01-23T00:29:46.781Z,107.47
2019-01-23T00:30:24.176Z,100.78
2019-01-23T00:31:02.099Z,103.27
2019-01-23T00:31:40.175Z,123.47
2019-01-23T00:32:18.062Z,103.47
2019-01-23T00:32:55.595Z,116.70
2019-01-23T00:33:33.587Z,106.75
2019-01-23T00:34:11.663Z,106.52
2019-01-23T00:34:48.981Z,119.93
2019-01-23T00:35:26.775Z,118.85
2019-01-23T00:36:04.785Z,116.50
2019-01-23T00:36:42.505Z,117.53
2019-01-23T00:37:19.819Z,118.35
2019-01-23T00:37:57.573Z,109.42
2019-01-23T00:38:35.544Z,119.40
2019-01-23T00:39:13.029Z,123.20
2019-01-23T00:39:50.943Z,116.50
2019-01-23T00:40:28.000Z,114.08
2019-01-23T00:41:05.797Z,117.17
2019-01-23T00:41:43.779Z,113.68
2019-01-23T00:42:20.754Z,115.12
2019-01-23T00:42:57.795Z,136.80
2019-01-23T00:43:35.579Z,122.60
2019-01-23T00:44:13.055Z,111.65
2019-01-23T00:44:50.535Z,118.65
2019-01-23T00:45:28.251Z,123.90
2019-01-23T00:46:06.309Z,128.60
2019-01-23T00:46:44.107Z,120.05
2019-01-23T00:47:21.987Z,119.87
2019-01-23T00:47:59.507Z,135.20
2019-01-23T00:48:37.489Z,127.10
2019-01-23T00:49:15.243Z,127.87
2019-01-23T00:49:52.731Z,121.07
2019-01-23T00:50:30.967Z,124.58
2019-01-23T00:51:08.527Z,130.57
2019-01-23T00:51:46.139Z,131.27
2019-01-23T00:52:24.005Z,131.93
2019-01-23T00:53:02.093Z,137.00
2019-01-23T00:53:39.771Z,132.93
2019-01-23T00:54:17.731Z,136.88
2019-01-23T00:54:55.123Z,139.20
2019-01-23T00:55:33.120Z,129.18
2019-01-23T00:56:10.539Z,136.55
2019-01-23T00:56:48.199Z,133.80
2019-01-23T00:57:25.445Z,138.70
2019-01-23T00:58:02.921Z,129.20
2019-01-23T00:58:40.823Z,133.63
2019-01-23T00:59:18.751Z,136.25
2019-01-23T00:59:56.294Z,131.47
2019-01-23T01:00:34.419Z,126.95
2019-01-23T01:01:12.085Z,132.93
2019-01-23T01:01:49.541Z,140.32
2019-01-23T01:02:27.535Z,129.32
2019-01-23T01:03:06.275Z,135.70
2019-01-23T01:03:44.372Z,137.30
2019-01-23T01:04:21.709Z,140.68
2019-01-23T01:04:59.395Z,134.97
2019-01-23T01:05:37.063Z,141.45
2019-01-23T01:06:20.149Z,130.05
2019-01-23T01:06:57.593Z,123.55
2019-01-23T01:07:35.083Z,135.35
2019-01-23T01:08:13.245Z,143.10
2019-01-23T01:08:51.129Z,133.70
2019-01-23T01:09:28.707Z,121.13
2019-01-23T01:10:08.810Z,126.58
2019-01-23T01:10:46.624Z,134.32
2019-01-23T01:11:23.647Z,133.95
2019-01-23T01:12:00.583Z,126.92
2019-01-23T01:12:38.267Z,130.80
2019-01-23T01:13:15.731Z,138.97
2019-01-23T01:13:53.580Z,140.50
2019-01-23T01:14:31.340Z,123.38
2019-01-23T01:15:13.324Z,136.05
2019-01-23T01:15:48.533Z,123.82
2019-01-23T01:16:31.987Z,130.80
2019-01-23T01:17:09.907Z,139.00
2019-01-23T01:17:47.619Z,138.65
2019-01-23T01:18:25.581Z,151.27
2019-01-23T01:19:04.363Z,135.07
2019-01-23T01:19:42.225Z,132.47
2019-01-23T01:20:20.031Z,130.63
2019-01-23T01:20:59.423Z,135.35
2019-01-23T01:21:37.742Z,138.18
2019-01-23T01:22:17.007Z,137.88
2019-01-23T01:22:54.740Z,137.62
2019-01-23T01:23:32.137Z,136.05
2019-01-23T01:24:10.060Z,134.20
2019-01-23T01:24:47.667Z,123.85
2019-01-23T01:25:27.150Z,132.85
2019-01-23T01:26:05.414Z,132.35
2019-01-23T01:26:43.259Z,128.23
2019-01-23T01:27:23.497Z,125.97
2019-01-23T01:28:01.793Z,117.65
2019-01-23T01:28:39.743Z,125.33
2019-01-23T01:29:17.568Z,121.25
2019-01-23T01:29:55.089Z,124.42
2019-01-23T01:30:32.941Z,117.08
2019-01-23T01:31:10.535Z,132.12
2019-01-23T01:31:48.234Z,132.75
2019-01-23T01:32:25.987Z,129.20
2019-01-23T01:33:03.873Z,127.38
2019-01-23T01:33:41.996Z,130.93
2019-01-23T01:34:19.755Z,128.50
2019-01-23T01:34:57.455Z,124.12
2019-01-23T01:35:34.746Z,113.47
2019-01-23T01:36:12.363Z,122.50
2019-01-23T01:36:49.775Z,133.27
2019-01-23T01:37:27.532Z,131.65
2019-01-23T01:38:05.291Z,137.37
2019-01-23T01:38:43.119Z,139.40
2019-01-23T01:39:20.941Z,116.67
2019-01-23T01:39:59.022Z,125.80
2019-01-23T01:40:37.119Z,115.55
2019-01-23T01:41:15.309Z,134.63
2019-01-23T01:41:52.921Z,121.13
2019-01-23T01:42:30.811Z,120.72
2019-01-23T01:43:08.607Z,118.70
2019-01-23T01:43:45.736Z,122.62
2019-01-23T01:44:23.515Z,117.57
2019-01-23T01:45:01.341Z,134.70
2019-01-23T01:45:38.711Z,118.13
2019-01-23T01:46:16.678Z,134.27
2019-01-23T01:46:54.387Z,124.02
2019-01-23T01:47:31.850Z,126.72
2019-01-23T01:48:09.273Z,118.42
2019-01-23T01:48:47.323Z,130.95
2019-01-23T01:49:25.105Z,123.22
2019-01-23T01:50:02.463Z,118.60
2019-01-23T01:50:40.705Z,119.42
2019-01-23T01:51:18.542Z,119.08
2019-01-23T01:51:56.302Z,128.25
2019-01-23T01:52:34.153Z,121.97
2019-01-23T01:53:11.579Z,121.15
2019-01-23T01:53:48.873Z,121.00
2019-01-23T01:54:26.341Z,112.10
2019-01-23T01:55:04.204Z,127.62
2019-01-23T01:55:41.260Z,131.55
2019-01-23T01:56:18.787Z,112.10
2019-01-23T01:56:55.954Z,112.15
2019-01-23T01:57:33.437Z,121.60
2019-01-23T01:58:10.813Z,115.25
2019-01-23T01:58:48.491Z,107.37
2019-01-23T01:59:26.272Z,115.08
2019-01-23T02:00:04.893Z,127.07
2019-01-23T02:00:48.323Z,116.47
2019-01-23T02:01:26.389Z,121.40
2019-01-23T02:02:05.036Z,115.28
2019-01-23T02:02:42.571Z,108.63
2019-01-23T02:03:20.979Z,110.92
2019-01-23T02:03:58.971Z,127.70
2019-01-23T02:04:36.123Z,112.50
2019-01-23T02:05:13.841Z,120.90
2019-01-23T02:05:51.409Z,116.88
2019-01-23T02:06:31.923Z,115.42
2019-01-23T02:07:09.635Z,118.17
2019-01-23T02:07:47.452Z,119.97
2019-01-23T02:08:25.214Z,110.12
2019-01-23T02:09:03.291Z,132.22
2019-01-23T02:09:40.947Z,112.97
2019-01-23T02:10:20.052Z,114.25
2019-01-23T02:10:57.706Z,118.30
2019-01-23T02:11:35.472Z,125.15
2019-01-23T02:12:13.365Z,113.00
2019-01-23T02:12:51.886Z,125.70
2019-01-23T02:13:29.717Z,126.42
2019-01-23T02:14:07.998Z,118.13
2019-01-23T02:14:45.643Z,122.62
2019-01-23T02:15:23.215Z,117.17
2019-01-23T02:16:00.680Z,100.87
2019-01-23T02:16:38.298Z,119.02
2019-01-23T02:17:16.802Z,111.47
2019-01-23T02:17:54.708Z,113.95
2019-01-23T02:18:32.657Z,116.85
2019-01-23T02:19:09.781Z,122.67
2019-01-23T02:19:47.771Z,103.25
2019-01-23T02:20:27.155Z,109.72
2019-01-23T02:21:04.517Z,115.28
2019-01-23T02:21:41.595Z,116.88
2019-01-23T02:22:18.894Z,106.80
2019-01-23T02:22:56.741Z,101.95
2019-01-23T02:23:34.967Z,111.70
2019-01-23T02:24:12.781Z,120.45
2019-01-23T02:24:50.145Z,108.17
2019-01-23T02:25:28.532Z,110.22
2019-01-23T02:26:06.481Z,109.17
2019-01-23T02:26:44.521Z,109.35
2019-01-23T02:27:22.364Z,113.95
2019-01-23T02:27:59.871Z,113.80
2019-01-23T02:28:37.341Z,108.17
2019-01-23T02:29:15.073Z,109.05
2019-01-23T02:29:53.041Z,121.55
2019-01-23T02:30:30.388Z,113.83
2019-01-23T02:31:08.179Z,121.67
2019-01-23T02:31:46.366Z,131.37
2019-01-23T02:32:23.416Z,128.00
2019-01-23T02:33:01.455Z,119.85
2019-01-23T02:33:39.131Z,119.75
2019-01-23T02:34:16.461Z,113.92
2019-01-23T02:34:54.179Z,112.30
2019-01-23T02:35:31.643Z,123.80
2019-01-23T02:36:09.026Z,122.42
2019-01-23T02:36:47.231Z,117.75
2019-01-23T02:37:24.775Z,119.13
2019-01-23T02:38:02.525Z,109.32
2019-01-23T02:38:40.191Z,123.28
2019-01-23T02:39:17.595Z,121.50
2019-01-23T02:39:54.643Z,113.50
2019-01-23T02:40:32.660Z,123.02
2019-01-23T02:41:10.081Z,122.28
2019-01-23T02:41:48.141Z,112.72
2019-01-23T02:42:25.549Z,124.50
2019-01-23T02:43:03.035Z,113.22
2019-01-23T02:43:40.728Z,110.00
2019-01-23T02:44:18.213Z,114.28
2019-01-23T02:44:55.686Z,120.15
2019-01-23T02:45:33.364Z,113.90
2019-01-23T02:46:10.524Z,117.22
2019-01-23T02:46:47.589Z,115.12
2019-01-23T02:47:25.617Z,114.45
2019-01-23T02:48:03.070Z,116.22
2019-01-23T02:48:40.795Z,101.58
2019-01-23T02:49:18.643Z,105.63
2019-01-23T02:49:56.111Z,106.65
2019-01-23T02:50:33.190Z,99.97
2019-01-23T02:51:10.311Z,101.10
2019-01-23T02:51:47.911Z,104.43
2019-01-23T02:52:25.762Z,121.67
2019-01-23T02:53:03.237Z,112.68
2019-01-23T02:53:40.405Z,119.67
2019-01-23T02:54:18.099Z,108.65
2019-01-23T02:54:55.846Z,110.95
2019-01-23T02:55:33.627Z,107.00
2019-01-23T02:56:11.320Z,108.70
2019-01-23T02:56:48.831Z,115.37
2019-01-23T02:57:26.717Z,107.83
2019-01-23T02:58:04.419Z,125.33
2019-01-23T02:58:42.486Z,108.80
2019-01-23T02:59:20.303Z,106.52
2019-01-23T02:59:58.137Z,114.67
2019-01-23T03:00:34.970Z,115.03
2019-01-23T03:01:12.911Z,107.52
2019-01-23T03:01:50.843Z,109.00
2019-01-23T03:02:28.874Z,112.65
2019-01-23T03:03:07.139Z,113.55
2019-01-23T03:03:44.770Z,112.55
2019-01-23T03:04:22.581Z,116.97
2019-01-23T03:05:00.523Z,115.47
2019-01-23T03:05:38.544Z,104.45
2019-01-23T03:06:16.041Z,116.15
2019-01-23T03:06:54.127Z,100.12
2019-01-23T03:07:32.203Z,105.80
2019-01-23T03:08:09.600Z,112.75
2019-01-23T03:08:47.345Z,123.05
2019-01-23T03:09:25.051Z,116.53
2019-01-23T03:10:02.812Z,117.65
2019-01-23T03:10:40.232Z,115.35
2019-01-23T03:11:18.168Z,106.15
2019-01-23T03:11:55.544Z,120.05
2019-01-23T03:12:32.620Z,121.57
2019-01-23T03:13:10.388Z,106.60
2019-01-23T03:13:48.130Z,112.65
2019-01-23T03:14:25.800Z,116.95
2019-01-23T03:15:03.246Z,116.93
2019-01-23T03:15:41.486Z,108.05
2019-01-23T03:16:19.442Z,114.32
2019-01-23T03:16:57.250Z,117.77
2019-01-23T03:17:34.547Z,123.80
2019-01-23T03:18:12.381Z,118.25
2019-01-23T03:18:50.373Z,107.47
2019-01-23T03:19:28.264Z,115.40
2019-01-23T03:20:07.422Z,116.15
2019-01-23T03:20:45.389Z,121.65
2019-01-23T03:21:23.656Z,124.90
2019-01-23T03:22:01.472Z,125.55
2019-01-23T03:22:39.168Z,112.00
2019-01-23T03:23:16.859Z,118.62
2019-01-23T03:23:54.411Z,109.83
2019-01-23T03:24:31.561Z,116.93
2019-01-23T03:25:15.337Z,113.08
2019-01-23T03:25:52.816Z,108.50
2019-01-23T03:26:30.767Z,120.53
2019-01-23T03:27:08.796Z,112.00
2019-01-23T03:27:46.658Z,112.55
2019-01-23T03:28:24.340Z,115.37
2019-01-23T03:29:01.453Z,109.63
2019-01-23T03:29:38.884Z,111.85
2019-01-23T03:30:21.329Z,120.15
2019-01-23T03:30:58.987Z,110.45
2019-01-23T03:31:37.023Z,99.95
2019-01-23T03:32:15.289Z,115.22
2019-01-23T03:32:54.605Z,114.85
2019-01-23T03:33:32.140Z,122.55
2019-01-23T03:34:09.849Z,124.12
2019-01-23T03:34:47.736Z,115.95
2019-01-23T03:35:24.727Z,104.70
2019-01-23T03:36:02.807Z,116.33
2019-01-23T03:36:40.490Z,121.30
2019-01-23T03:37:18.481Z,123.15
2019-01-23T03:37:56.209Z,112.92
2019-01-23T03:38:33.626Z,114.67
2019-01-23T03:39:10.991Z,109.30
2019-01-23T03:39:48.815Z,116.20
2019-01-23T03:40:26.803Z,105.97
2019-01-23T03:41:04.624Z,112.97
2019-01-23T03:41:42.644Z,107.60
2019-01-23T03:42:20.324Z,122.07
2019-01-23T03:42:58.351Z,126.97
2019-01-23T03:43:35.799Z,111.22
2019-01-23T03:44:13.590Z,125.27
2019-01-23T03:44:51.542Z,126.38
2019-01-23T03:45:29.275Z,107.20
2019-01-23T03:46:07.381Z,116.45
2019-01-23T03:46:45.426Z,117.85
2019-01-23T03:47:22.920Z,124.55
2019-01-23T03:48:00.227Z,123.07
2019-01-23T03:48:38.057Z,120.15
2019-01-23T03:49:15.497Z,117.97
2019-01-23T03:49:53.423Z,135.70
2019-01-23T03:50:31.152Z,122.28
2019-01-23T03:51:08.916Z,112.47
2019-01-23T03:51:46.684Z,120.50
2019-01-23T03:52:24.495Z,139.85
2019-01-23T03:53:02.448Z,117.25
2019-01-23T03:53:40.592Z,119.75
2019-01-23T03:54:18.257Z,127.22
2019-01-23T03:54:56.362Z,122.30
2019-01-23T03:55:33.884Z,113.10
2019-01-23T03:56:11.255Z,139.43
2019-01-23T03:56:48.685Z,126.58
2019-01-23T03:57:26.420Z,111.32
2019-01-23T03:58:04.478Z,118.10
2019-01-23T03:58:42.280Z,117.57
2019-01-23T03:59:19.727Z,117.65
2019-01-23T03:59:57.154Z,122.50
2019-01-23T04:00:34.784Z,121.55
2019-01-23T04:01:12.807Z,122.35
2019-01-23T04:01:50.521Z,107.67
2019-01-23T04:02:28.051Z,126.27
2019-01-23T04:03:06.641Z,111.65
2019-01-23T04:03:44.768Z,122.85
2019-01-23T04:04:23.160Z,125.38
2019-01-23T04:05:01.086Z,121.85
2019-01-23T04:05:39.178Z,115.08
2019-01-23T04:06:16.706Z,118.05
2019-01-23T04:06:54.826Z,116.75
2019-01-23T04:07:32.852Z,129.87
2019-01-23T04:08:11.036Z,116.03
2019-01-23T04:08:49.093Z,121.87
2019-01-23T04:09:26.948Z,118.53
2019-01-23T04:10:06.050Z,119.82
2019-01-23T04:10:44.125Z,116.82
2019-01-23T04:11:22.282Z,132.85
2019-01-23T04:11:59.702Z,135.68
2019-01-23T04:12:37.804Z,119.13
2019-01-23T04:13:15.528Z,132.45
2019-01-23T04:13:53.011Z,126.97
2019-01-23T04:14:30.787Z,124.25
2019-01-23T04:15:10.024Z,125.50
2019-01-23T04:15:47.604Z,114.32
2019-01-23T04:16:25.916Z,122.60
2019-01-23T04:17:04.028Z,124.38
2019-01-23T04:17:41.780Z,110.50
2019-01-23T04:18:19.600Z,120.50
2019-01-23T04:18:57.132Z,132.78
2019-01-23T04:19:35.251Z,123.82
2019-01-23T04:20:15.551Z,126.02
2019-01-23T04:20:53.052Z,124.70
2019-01-23T04:21:30.152Z,120.55
2019-01-23T04:22:07.934Z,121.60
2019-01-23T04:22:45.807Z,130.90
2019-01-23T04:23:23.312Z,132.43
2019-01-23T04:24:00.506Z,117.47
2019-01-23T04:24:38.566Z,117.50
2019-01-23T04:25:17.048Z,135.32
2019-01-23T04:25:54.617Z,125.27
2019-01-23T04:26:32.510Z,118.57
2019-01-23T04:27:10.274Z,120.82
2019-01-23T04:27:47.818Z,119.75
2019-01-23T04:28:25.509Z,132.80
2019-01-23T04:29:05.937Z,125.27
2019-01-23T04:29:43.616Z,118.05
2019-01-23T04:30:22.885Z,128.95
2019-01-23T04:31:06.426Z,108.03
2019-01-23T04:31:44.653Z,131.43
2019-01-23T04:32:21.807Z,129.97
2019-01-23T04:32:59.816Z,129.75
2019-01-23T04:33:37.176Z,143.02
2019-01-23T04:34:14.752Z,127.78
2019-01-23T04:34:51.810Z,124.90
2019-01-23T04:35:29.530Z,121.97
2019-01-23T04:36:07.486Z,129.03
2019-01-23T04:36:44.661Z,116.95
2019-01-23T04:37:21.776Z,125.42
2019-01-23T04:37:59.440Z,114.37
2019-01-23T04:38:36.618Z,121.62
2019-01-23T04:39:14.554Z,124.10
2019-01-23T04:39:52.596Z,116.20
2019-01-23T04:40:29.662Z,125.38
2019-01-23T04:41:07.528Z,118.00
2019-01-23T04:41:44.588Z,110.05
2019-01-23T04:42:21.966Z,118.95
2019-01-23T04:42:59.755Z,123.13
2019-01-23T04:43:37.281Z,126.97
2019-01-23T04:44:15.151Z,128.42
2019-01-23T04:44:53.242Z,132.80
2019-01-23T04:45:30.797Z,119.53
2019-01-23T04:46:08.841Z,124.20
2019-01-23T04:46:46.373Z,116.45
2019-01-23T04:47:24.312Z,120.90
2019-01-23T04:48:01.737Z,130.00
2019-01-23T04:48:39.344Z,126.35
2019-01-23T04:49:17.315Z,134.32
2019-01-23T04:49:55.377Z,116.55
2019-01-23T04:50:35.161Z,126.60
2019-01-23T04:51:41.026Z,114.67
2019-01-23T04:52:36.172Z,120.33
2019-01-23T04:53:18.554Z,114.17
2019-01-23T04:53:56.686Z,116.57
2019-01-23T04:54:34.132Z,125.85
2019-01-23T04:55:11.821Z,121.60
2019-01-23T04:55:48.936Z,126.65
2019-01-23T04:56:26.652Z,119.22
2019-01-23T04:57:04.564Z,128.85
2019-01-23T04:57:42.305Z,127.87
2019-01-23T04:58:20.310Z,125.65
2019-01-23T04:58:57.768Z,134.95
2019-01-23T04:59:35.658Z,121.75
2019-01-23T05:00:15.859Z,116.08
2019-01-23T05:00:53.950Z,131.55
2019-01-23T05:01:32.008Z,127.82
2019-01-23T05:02:09.624Z,122.60
2019-01-23T05:02:47.410Z,120.42
2019-01-23T05:03:25.500Z,116.20
2019-01-23T05:04:09.259Z,127.97
2019-01-23T05:04:47.004Z,116.55
2019-01-23T05:05:24.154Z,119.97
2019-01-23T05:06:01.585Z,110.15
2019-01-23T05:06:39.032Z,130.75
2019-01-23T05:07:16.414Z,117.62
2019-01-23T05:07:54.197Z,116.42
2019-01-23T05:08:31.817Z,113.32
2019-01-23T05:09:27.982Z,124.80
2019-01-23T05:10:05.694Z,129.30
2019-01-23T05:10:43.489Z,109.52
2019-01-23T05:11:20.638Z,122.02
2019-01-23T05:11:58.523Z,123.10
2019-01-23T05:12:36.581Z,113.08
2019-01-23T05:13:14.276Z,128.02
2019-01-23T05:13:52.025Z,133.93
2019-01-23T05:14:29.479Z,130.27
2019-01-23T05:15:06.983Z,125.10
2019-01-23T05:15:44.418Z,137.85
2019-01-23T05:16:21.797Z,129.07
2019-01-23T05:16:59.286Z,140.65
2019-01-23T05:17:37.019Z,122.65
2019-01-23T05:18:14.865Z,123.13
2019-01-23T05:18:52.325Z,131.43
2019-01-23T05:19:30.358Z,132.65
2019-01-23T05:20:07.825Z,129.23
2019-01-23T05:20:44.966Z,126.25
2019-01-23T05:21:23.200Z,126.20
2019-01-23T05:22:00.565Z,132.57
2019-01-23T05:22:38.152Z,124.58
2019-01-23T05:23:15.672Z,123.02
2019-01-23T05:23:53.034Z,121.20
2019-01-23T05:24:30.678Z,136.97
2019-01-23T05:25:08.215Z,122.62
2019-01-23T05:25:46.355Z,128.10
2019-01-23T05:26:24.056Z,122.47
2019-01-23T05:27:01.077Z,128.55
2019-01-23T05:27:39.287Z,122.07
2019-01-23T05:28:17.019Z,119.87
2019-01-23T05:28:54.749Z,109.87
2019-01-23T05:29:31.937Z,125.00
2019-01-23T05:30:13.925Z,119.10
2019-01-23T05:30:52.006Z,123.70
2019-01-23T05:31:29.594Z,116.50
2019-01-23T05:32:07.277Z,130.37
2019-01-23T05:32:44.947Z,113.85
2019-01-23T05:33:22.112Z,126.47
2019-01-23T05:33:59.820Z,117.97
2019-01-23T05:34:37.177Z,123.70
2019-01-23T05:35:14.687Z,120.25
2019-01-23T05:35:52.585Z,125.90
2019-01-23T05:36:29.919Z,124.42
2019-01-23T05:37:07.417Z,132.78
2019-01-23T05:37:45.186Z,129.97
2019-01-23T05:38:23.295Z,113.00
2019-01-23T05:39:00.978Z,123.78
2019-01-23T05:39:38.440Z,123.07
2019-01-23T05:40:16.539Z,119.97
2019-01-23T05:40:54.643Z,135.35
2019-01-23T05:41:32.120Z,120.75
2019-01-23T05:42:28.946Z,124.87
2019-01-23T05:43:06.637Z,126.15
2019-01-23T05:43:44.337Z,127.72
2019-01-23T05:44:21.986Z,134.65
2019-01-23T05:45:00.013Z,123.13
2019-01-23T05:45:38.045Z,119.22
2019-01-23T05:46:15.677Z,120.17
2019-01-23T05:46:53.249Z,129.32
2019-01-23T05:47:30.945Z,119.02
2019-01-23T05:48:08.527Z,135.48
2019-01-23T05:48:46.323Z,133.20
2019-01-23T05:49:23.819Z,135.52
2019-01-23T05:50:01.166Z,123.22
2019-01-23T05:50:38.518Z,127.65
2019-01-23T05:51:16.229Z,121.55
2019-01-23T05:51:53.981Z,118.08
2019-01-23T05:52:30.980Z,119.75
2019-01-23T05:53:08.669Z,136.68
2019-01-23T05:53:46.117Z,128.25
2019-01-23T05:54:23.219Z,122.22
2019-01-23T05:55:00.681Z,127.97
2019-01-23T05:55:38.371Z,121.02
2019-01-23T05:56:16.408Z,122.87
2019-01-23T05:56:54.172Z,140.22
2019-01-23T05:57:31.922Z,119.72
2019-01-23T05:58:10.219Z,125.30
2019-01-23T05:58:47.937Z,124.55
2019-01-23T05:59:25.509Z,123.78
2019-01-23T06:00:03.529Z,130.97
2019-01-23T06:00:40.987Z,124.90
2019-01-23T06:01:19.150Z,122.05
2019-01-23T06:01:56.717Z,127.82
2019-01-23T06:02:34.563Z,127.75
2019-01-23T06:03:11.903Z,125.85
2019-01-23T06:03:49.427Z,135.95
2019-01-23T06:04:27.247Z,133.25
2019-01-23T06:05:06.363Z,124.35
2019-01-23T06:05:44.093Z,129.90
2019-01-23T06:06:21.449Z,123.18
2019-01-23T06:06:58.527Z,124.40
2019-01-23T06:07:35.969Z,124.75
2019-01-23T06:08:13.303Z,132.90
2019-01-23T06:08:50.763Z,130.72
2019-01-23T06:09:28.459Z,132.95
2019-01-23T06:10:07.242Z,128.68
2019-01-23T06:10:44.620Z,126.62
2019-01-23T06:11:22.301Z,122.00
2019-01-23T06:12:00.324Z,138.12
2019-01-23T06:12:37.950Z,130.95
2019-01-23T06:13:15.661Z,137.62
2019-01-23T06:13:53.434Z,136.88
2019-01-23T06:14:30.488Z,133.78
2019-01-23T06:15:08.835Z,127.55
2019-01-23T06:15:46.271Z,138.47
2019-01-23T06:16:23.755Z,144.87
2019-01-23T06:17:01.627Z,147.20
2019-01-23T06:17:39.785Z,126.07
2019-01-23T06:18:17.103Z,129.07
2019-01-23T06:18:55.033Z,125.92
2019-01-23T06:19:32.485Z,140.60
2019-01-23T06:20:12.603Z,133.25
2019-01-23T06:20:49.969Z,156.85
2019-01-23T06:21:27.707Z,128.30
2019-01-23T06:22:05.579Z,142.22
2019-01-23T06:22:43.355Z,134.78
2019-01-23T06:23:20.527Z,131.72
2019-01-23T06:23:58.646Z,131.60
2019-01-23T06:24:36.100Z,132.32
2019-01-23T06:25:13.784Z,135.45
2019-01-23T06:25:51.807Z,134.05
2019-01-23T06:26:29.670Z,143.57
2019-01-23T06:27:07.465Z,126.65
2019-01-23T06:27:45.423Z,152.25
2019-01-23T06:28:23.027Z,149.38
2019-01-23T06:29:00.113Z,129.80
2019-01-23T06:29:37.759Z,140.05
2019-01-23T06:30:20.167Z,138.03
2019-01-23T06:30:58.143Z,140.60
2019-01-23T06:31:37.307Z,149.77
2019-01-23T06:32:15.161Z,133.40
2019-01-23T06:32:52.581Z,137.88
2019-01-23T06:33:30.351Z,137.85
2019-01-23T06:34:08.124Z,148.93
2019-01-23T06:34:46.127Z,144.17
2019-01-23T06:35:24.220Z,149.10
2019-01-23T06:36:01.983Z,162.68
2019-01-23T06:36:40.004Z,149.87
2019-01-23T06:37:18.083Z,142.75
2019-01-23T06:37:56.275Z,156.97
2019-01-23T06:38:34.056Z,150.62
2019-01-23T06:39:12.061Z,156.28
2019-01-23T06:39:50.026Z,144.65
2019-01-23T06:40:28.237Z,142.45
2019-01-23T06:41:06.141Z,145.95
2019-01-23T06:41:43.913Z,142.75
2019-01-23T06:42:21.577Z,147.90
2019-01-23T06:42:59.455Z,144.37
2019-01-23T06:43:36.785Z,155.55
2019-01-23T06:44:14.513Z,174.40
2019-01-23T06:44:52.172Z,135.15
2019-01-23T06:45:30.437Z,152.30
2019-01-23T06:46:08.633Z,155.70
2019-01-23T06:46:46.593Z,149.87
2019-01-23T06:47:24.739Z,158.85
2019-01-23T06:48:02.807Z,150.65
2019-01-23T06:48:40.802Z,160.82
2019-01-23T06:49:18.911Z,143.72
2019-01-23T06:49:56.780Z,155.25
2019-01-23T06:50:34.277Z,150.82
2019-01-23T06:51:12.479Z,155.78
2019-01-23T06:51:49.922Z,167.60
2019-01-23T06:52:27.907Z,171.13
2019-01-23T06:53:05.095Z,164.28
2019-01-23T06:53:42.183Z,173.43
2019-01-23T06:54:19.678Z,183.45
2019-01-23T06:54:57.827Z,160.07
2019-01-23T06:55:35.283Z,163.15
2019-01-23T06:56:12.960Z,182.07
2019-01-23T06:56:50.947Z,164.25
2019-01-23T06:57:28.052Z,165.28
2019-01-23T06:58:06.157Z,169.82
2019-01-23T06:58:43.592Z,142.55
2019-01-23T06:59:21.070Z,159.10
2019-01-23T06:59:58.489Z,157.20
2019-01-23T07:00:36.243Z,169.85
2019-01-23T07:01:13.891Z,167.93
2019-01-23T07:01:51.597Z,172.37
2019-01-23T07:02:29.003Z,155.72
2019-01-23T07:03:06.798Z,143.80
2019-01-23T07:03:44.045Z,157.85
2019-01-23T07:04:21.753Z,171.20
2019-01-23T07:04:59.227Z,152.20
2019-01-23T07:05:36.275Z,153.38
2019-01-23T07:06:13.882Z,160.03
2019-01-23T07:06:51.629Z,149.68
2019-01-23T07:07:29.208Z,152.80
2019-01-23T07:08:06.597Z,163.60
2019-01-23T07:08:44.383Z,146.28
2019-01-23T07:09:22.205Z,151.57
2019-01-23T07:09:59.865Z,137.30
2019-01-23T07:10:37.845Z,153.00
2019-01-23T07:11:15.731Z,141.85
2019-01-23T07:11:52.563Z,143.72
2019-01-23T07:12:30.371Z,142.68
2019-01-23T07:13:08.381Z,151.90
2019-01-23T07:13:46.171Z,156.02
2019-01-23T07:14:24.227Z,160.65
2019-01-23T07:15:01.985Z,146.20
2019-01-23T07:15:39.824Z,160.35
2019-01-23T07:16:17.864Z,152.68
2019-01-23T07:16:55.664Z,148.20
2019-01-23T07:17:33.462Z,167.00
2019-01-23T07:18:11.103Z,144.43
2019-01-23T07:18:48.547Z,154.85
2019-01-23T07:19:26.490Z,146.28
2019-01-23T07:20:03.813Z,154.40
2019-01-23T07:20:41.281Z,143.30
2019-01-23T07:21:18.658Z,158.45
2019-01-23T07:21:56.456Z,156.63
2019-01-23T07:22:34.162Z,156.65
2019-01-23T07:23:12.229Z,156.85
2019-01-23T07:23:50.221Z,156.28
2019-01-23T07:24:27.947Z,152.85
2019-01-23T07:25:06.655Z,164.77
2019-01-23T07:25:44.601Z,144.53
2019-01-23T07:26:22.435Z,172.80
2019-01-23T07:27:00.095Z,157.47
2019-01-23T07:27:37.903Z,157.52
2019-01-23T07:28:15.644Z,166.50
2019-01-23T07:28:53.047Z,150.15
2019-01-23T07:29:30.840Z,154.87
2019-01-23T07:30:13.101Z,150.47
2019-01-23T07:30:51.020Z,159.43
2019-01-23T07:31:29.127Z,147.40
2019-01-23T07:32:07.583Z,157.03
2019-01-23T07:32:45.319Z,155.10
2019-01-23T07:33:22.856Z,159.87
2019-01-23T07:34:00.603Z,161.97
2019-01-23T07:34:38.664Z,149.95
2019-01-23T07:35:16.147Z,159.25
2019-01-23T07:35:54.219Z,180.97
2019-01-23T07:36:31.986Z,159.07
2019-01-23T07:37:09.777Z,164.07
2019-01-23T07:37:47.295Z,154.95
2019-01-23T07:38:25.367Z,162.30
2019-01-23T07:39:05.430Z,144.43
2019-01-23T07:39:43.536Z,146.28
2019-01-23T07:40:21.571Z,147.02
2019-01-23T07:40:59.702Z,150.03
2019-01-23T07:41:37.055Z,150.38
2019-01-23T07:42:15.158Z,145.00
2019-01-23T07:42:53.012Z,161.22
2019-01-23T07:43:30.952Z,154.57
2019-01-23T07:44:08.685Z,144.68
2019-01-23T07:44:46.116Z,166.50
2019-01-23T07:45:24.205Z,149.87
2019-01-23T07:46:02.280Z,144.57
2019-01-23T07:46:40.490Z,141.65
2019-01-23T07:47:18.331Z,153.25
2019-01-23T07:47:56.053Z,146.70
2019-01-23T07:48:33.773Z,150.35
2019-01-23T07:49:11.825Z,153.53
2019-01-23T07:49:49.496Z,152.68
2019-01-23T07:50:27.058Z,157.45
2019-01-23T07:51:05.190Z,154.57
2019-01-23T07:51:42.900Z,152.93
2019-01-23T07:52:20.693Z,150.82
2019-01-23T07:52:58.816Z,145.10
2019-01-23T07:53:36.523Z,175.93
2019-01-23T07:54:14.209Z,154.90
2019-01-23T07:54:51.914Z,147.65